createdAt,value
2022-12-28T00:01:12.949Z,3.60
2022-12-28T00:03:39.597Z,3.65
2022-12-28T00:06:07.012Z,3.85
2022-12-28T00:08:33.814Z,4.10
2022-12-28T00:11:06.500Z,3.97
2022-12-28T00:13:37.249Z,3.80
2022-12-28T00:16:09.033Z,3.08
2022-12-28T00:18:35.900Z,3.70
2022-12-28T00:21:03.776Z,3.38
2022-12-28T00:23:31.422Z,3.90
2022-12-28T00:26:05.977Z,4.05
2022-12-28T00:28:32.622Z,3.17
2022-12-28T00:30:59.191Z,3.45
2022-12-28T00:33:28.080Z,3.25
2022-12-28T00:35:55.372Z,3.65
2022-12-28T00:38:22.067Z,3.17
2022-12-28T00:40:48.701Z,3.30
2022-12-28T00:43:15.444Z,3.33
2022-12-28T00:45:44.320Z,3.45
2022-12-28T00:48:10.991Z,3.42
2022-12-28T00:50:39.415Z,3.08
2022-12-28T00:53:06.303Z,2.75
2022-12-28T00:55:33.557Z,3.30
2022-12-28T00:58:00.316Z,2.90
2022-12-28T01:00:27.365Z,3.08
2022-12-28T01:02:54.185Z,2.85
2022-12-28T01:05:21.054Z,2.90
2022-12-28T01:07:49.056Z,2.65
2022-12-28T01:10:16.099Z,2.75
2022-12-28T01:12:42.754Z,2.58
2022-12-28T01:15:11.815Z,2.90
2022-12-28T01:17:39.478Z,3.22
2022-12-28T01:20:08.207Z,2.90
2022-12-28T01:22:34.859Z,2.58
2022-12-28T01:25:03.127Z,2.70
2022-12-28T01:27:29.730Z,3.00
2022-12-28T01:29:56.612Z,2.63
2022-12-28T01:32:23.277Z,2.55
2022-12-28T01:34:49.834Z,2.75
2022-12-28T01:37:16.442Z,2.90
2022-12-28T01:39:43.048Z,3.75
2022-12-28T01:42:16.153Z,2.70
2022-12-28T01:44:47.711Z,3.00
2022-12-28T01:47:18.487Z,2.30
2022-12-28T01:49:51.389Z,2.95
2022-12-28T01:52:24.484Z,2.60
2022-12-28T01:54:54.310Z,2.72
2022-12-28T01:57:30.703Z,2.53
2022-12-28T02:00:01.550Z,2.40
2022-12-28T02:02:29.814Z,2.25
2022-12-28T02:04:57.929Z,2.42
2022-12-28T02:07:36.558Z,2.58
2022-12-28T02:10:42.941Z,2.50
2022-12-28T02:12:54.187Z,2.53
2022-12-28T02:15:23.295Z,2.20
2022-12-28T02:17:50.433Z,2.60
2022-12-28T02:20:17.149Z,2.78
2022-12-28T02:23:34.265Z,2.10
2022-12-28T02:26:40.400Z,2.70
2022-12-28T02:29:20.397Z,2.45
2022-12-28T02:31:55.161Z,2.40
2022-12-28T02:34:25.955Z,2.33
2022-12-28T02:36:59.540Z,2.58
2022-12-28T02:39:32.118Z,3.03
2022-12-28T02:42:00.077Z,2.97
2022-12-28T02:44:28.095Z,3.20
2022-12-28T02:46:54.764Z,2.47
2022-12-28T02:49:23.040Z,3.10
2022-12-28T02:52:01.815Z,3.20
2022-12-28T02:55:02.742Z,2.95
2022-12-28T02:57:45.055Z,2.70
2022-12-28T03:00:16.675Z,3.47
2022-12-28T03:03:10.089Z,2.60
2022-12-28T03:05:50.239Z,3.10
2022-12-28T03:08:20.820Z,2.80
2022-12-28T03:10:55.906Z,3.00
2022-12-28T03:13:29.945Z,2.75
2022-12-28T03:16:04.996Z,3.17
2022-12-28T03:18:35.916Z,2.83
2022-12-28T03:21:06.552Z,3.80
2022-12-28T03:23:35.261Z,2.72
2022-12-28T03:26:04.673Z,3.03
2022-12-28T03:28:34.532Z,2.95
2022-12-28T03:31:07.749Z,2.78
2022-12-28T03:33:36.893Z,3.03
2022-12-28T03:36:10.699Z,2.83
2022-12-28T03:38:47.362Z,2.60
2022-12-28T03:41:19.111Z,3.38
2022-12-28T03:43:51.973Z,3.00
2022-12-28T03:46:24.437Z,2.85
2022-12-28T03:48:52.164Z,2.67
2022-12-28T03:51:21.742Z,2.97
2022-12-28T03:53:48.712Z,2.80
2022-12-28T03:56:18.149Z,2.33
2022-12-28T03:58:45.134Z,2.80
2022-12-28T04:01:12.327Z,2.90
2022-12-28T04:03:40.607Z,2.33
2022-12-28T04:06:08.098Z,2.42
2022-12-28T04:08:35.980Z,2.30
2022-12-28T04:11:02.595Z,2.13
2022-12-28T04:13:30.305Z,2.42
2022-12-28T04:15:58.365Z,2.60
2022-12-28T04:18:25.317Z,2.33
2022-12-28T04:20:53.755Z,2.25
2022-12-28T04:23:20.495Z,2.30
2022-12-28T04:25:56.929Z,2.90
2022-12-28T04:28:23.557Z,3.10
2022-12-28T04:30:50.197Z,2.58
2022-12-28T04:33:17.137Z,2.63
2022-12-28T04:35:43.760Z,2.60
2022-12-28T04:38:11.744Z,3.25
2022-12-28T04:40:38.370Z,3.40
2022-12-28T04:43:05.073Z,2.55
2022-12-28T04:45:31.637Z,2.40
2022-12-28T04:47:58.628Z,2.13
2022-12-28T04:50:25.300Z,3.10
2022-12-28T04:52:51.992Z,2.65
2022-12-28T04:55:32.231Z,1.95
2022-12-28T04:58:00.614Z,2.25
2022-12-28T05:00:27.265Z,2.25
2022-12-28T05:02:53.964Z,2.20
2022-12-28T05:05:20.654Z,2.60
2022-12-28T05:07:47.302Z,2.60
2022-12-28T05:10:13.928Z,1.98
2022-12-28T05:12:41.930Z,2.08
2022-12-28T05:15:09.433Z,2.22
2022-12-28T05:17:36.274Z,2.60
2022-12-28T05:20:03.268Z,2.20
2022-12-28T05:22:29.869Z,2.15
2022-12-28T05:24:56.594Z,2.05
2022-12-28T05:27:23.221Z,1.55
2022-12-28T05:29:51.193Z,2.08
2022-12-28T05:32:18.037Z,2.00
2022-12-28T05:34:44.977Z,1.80
2022-12-28T05:37:15.620Z,1.80
2022-12-28T05:39:45.202Z,1.63
2022-12-28T05:42:11.767Z,1.52
2022-12-28T05:44:38.368Z,2.50
2022-12-28T05:47:06.498Z,2.00
2022-12-28T05:49:33.345Z,1.90
2022-12-28T05:51:59.937Z,1.70
2022-12-28T05:54:26.547Z,1.95
2022-12-28T05:56:53.150Z,1.50
2022-12-28T05:59:19.773Z,1.50
2022-12-28T06:01:46.456Z,1.42
2022-12-28T06:04:17.105Z,1.50
2022-12-28T06:06:45.089Z,1.80
2022-12-28T06:09:11.901Z,1.45
2022-12-28T06:11:38.997Z,1.60
2022-12-28T06:14:06.135Z,1.38
2022-12-28T06:16:35.284Z,1.50
2022-12-28T06:19:05.109Z,1.50
2022-12-28T06:21:34.544Z,1.65
2022-12-28T06:24:02.085Z,1.70
2022-12-28T06:26:30.390Z,1.83
2022-12-28T06:28:57.944Z,1.40
2022-12-28T06:31:26.546Z,1.45
2022-12-28T06:33:55.208Z,1.50
2022-12-28T06:36:23.607Z,1.30
2022-12-28T06:38:53.617Z,1.70
2022-12-28T06:41:21.428Z,1.73
2022-12-28T06:43:48.973Z,1.40
2022-12-28T06:46:17.102Z,1.42
2022-12-28T06:48:44.126Z,1.27
2022-12-28T06:51:13.544Z,1.65
2022-12-28T06:53:40.574Z,1.70
2022-12-28T06:56:11.580Z,1.60
2022-12-28T06:58:38.763Z,1.55
2022-12-28T07:01:07.333Z,1.75
2022-12-28T07:03:34.074Z,1.85
2022-12-28T07:06:01.087Z,1.70
2022-12-28T07:08:27.930Z,1.42
2022-12-28T07:10:54.762Z,1.70
2022-12-28T07:13:27.951Z,2.28
2022-12-28T07:15:54.985Z,2.50
2022-12-28T07:18:21.725Z,1.98
2022-12-28T07:20:48.409Z,1.58
2022-12-28T07:23:15.283Z,1.75
2022-12-28T07:25:43.452Z,1.70
2022-12-28T07:28:10.108Z,1.65
2022-12-28T07:30:38.150Z,1.70
2022-12-28T07:33:04.824Z,1.80
2022-12-28T07:35:31.439Z,1.90
2022-12-28T07:37:58.083Z,1.90
2022-12-28T07:40:24.706Z,1.98
2022-12-28T07:42:51.362Z,2.22
2022-12-28T07:45:18.065Z,2.03
2022-12-28T07:47:46.102Z,1.80
2022-12-28T07:50:12.669Z,2.20
2022-12-28T07:52:39.304Z,1.95
2022-12-28T07:55:06.323Z,2.10
2022-12-28T07:57:32.975Z,2.17
2022-12-28T07:59:59.585Z,2.00
2022-12-28T08:02:26.364Z,2.60
2022-12-28T08:04:54.526Z,2.03
2022-12-28T08:07:21.283Z,1.90
2022-12-28T08:09:47.835Z,2.38
2022-12-28T08:12:14.464Z,2.50
2022-12-28T08:14:42.333Z,2.20
2022-12-28T08:17:09.033Z,2.80
2022-12-28T08:19:35.659Z,2.30
2022-12-28T08:22:03.628Z,2.30
2022-12-28T08:24:30.251Z,2.25
2022-12-28T08:26:56.808Z,2.53
2022-12-28T08:29:23.408Z,2.70
2022-12-28T08:31:50.179Z,2.85
2022-12-28T08:34:18.785Z,2.50
2022-12-28T08:36:45.554Z,2.88
2022-12-28T08:39:13.582Z,2.25
2022-12-28T08:41:40.151Z,2.45
2022-12-28T08:44:06.884Z,2.40
2022-12-28T08:46:35.373Z,2.35
2022-12-28T08:49:02.349Z,2.42
2022-12-28T08:51:31.912Z,2.90
2022-12-28T08:53:59.194Z,2.97
2022-12-28T08:56:29.217Z,2.78
2022-12-28T08:58:57.143Z,2.95
2022-12-28T09:01:25.682Z,2.55
2022-12-28T09:03:54.249Z,3.28
2022-12-28T09:06:23.289Z,2.30
2022-12-28T09:09:04.813Z,2.17
2022-12-28T09:11:34.151Z,2.47
2022-12-28T09:14:02.987Z,2.58
2022-12-28T09:16:29.694Z,2.45
2022-12-28T09:18:59.480Z,2.20
2022-12-28T09:21:28.941Z,2.92
2022-12-28T09:23:55.700Z,2.05
2022-12-28T09:26:24.319Z,1.92
2022-12-28T09:28:53.589Z,2.50
2022-12-28T09:31:22.253Z,2.33
2022-12-28T09:34:23.373Z,2.10
2022-12-28T09:36:37.161Z,2.63
2022-12-28T09:39:06.751Z,2.10
2022-12-28T09:41:37.879Z,2.30
2022-12-28T09:44:20.434Z,1.95
2022-12-28T09:46:51.767Z,2.60
2022-12-28T09:49:24.244Z,2.45
2022-12-28T09:51:55.178Z,2.08
2022-12-28T09:54:22.100Z,2.15
2022-12-28T09:56:49.291Z,2.20
2022-12-28T09:59:21.511Z,2.20
2022-12-28T10:01:54.639Z,2.13
2022-12-28T10:04:22.080Z,2.00
2022-12-28T10:06:48.877Z,2.42
2022-12-28T10:09:22.132Z,1.90
2022-12-28T10:11:48.762Z,1.90
2022-12-28T10:14:22.380Z,2.08
2022-12-28T10:16:49.173Z,1.98
2022-12-28T10:19:18.217Z,2.65
2022-12-28T10:21:45.876Z,2.20
2022-12-28T10:27:01.546Z,2.00
2022-12-28T10:29:32.651Z,2.17
2022-12-28T10:32:01.058Z,2.25
2022-12-28T10:34:33.525Z,2.17
2022-12-28T10:37:06.124Z,2.17
2022-12-28T10:39:49.171Z,2.30
2022-12-28T10:42:22.852Z,2.22
2022-12-28T10:44:51.229Z,2.28
2022-12-28T10:47:28.431Z,2.40
2022-12-28T10:50:18.945Z,2.40
2022-12-28T10:52:41.631Z,2.80
2022-12-28T10:55:26.681Z,2.08
2022-12-28T10:58:27.366Z,2.00
2022-12-28T11:00:44.545Z,2.08
2022-12-28T11:03:19.145Z,1.90
2022-12-28T11:05:46.595Z,1.85
2022-12-28T11:08:14.525Z,1.77
2022-12-28T11:10:41.417Z,1.95
2022-12-28T11:13:22.021Z,2.00
2022-12-28T11:15:50.416Z,1.83
2022-12-28T11:18:18.536Z,1.65
2022-12-28T11:20:48.188Z,2.05
2022-12-28T11:23:18.380Z,1.92
2022-12-28T11:25:45.124Z,1.83
2022-12-28T11:28:14.330Z,2.15
2022-12-28T11:30:40.997Z,2.40
2022-12-28T11:33:25.199Z,2.05
2022-12-28T11:35:59.098Z,2.00
2022-12-28T11:38:40.394Z,2.10
2022-12-28T11:41:09.667Z,1.80
2022-12-28T11:43:38.199Z,1.70
2022-12-28T11:46:05.787Z,2.08
2022-12-28T11:48:47.627Z,1.63
2022-12-28T11:51:16.445Z,1.55
2022-12-28T11:53:52.611Z,2.08
2022-12-28T11:56:20.598Z,1.75
2022-12-28T11:59:02.502Z,2.20
2022-12-28T12:01:49.077Z,2.22
2022-12-28T12:04:44.337Z,2.17
2022-12-28T12:07:31.791Z,2.28
2022-12-28T12:10:21.659Z,1.70
2022-12-28T12:12:51.652Z,1.67
2022-12-28T12:15:21.884Z,2.13
2022-12-28T12:17:53.320Z,1.70
2022-12-28T12:20:42.712Z,1.60
2022-12-28T12:23:19.081Z,1.63
2022-12-28T12:25:48.549Z,1.70
2022-12-28T12:28:31.499Z,1.65
2022-12-28T12:30:59.478Z,1.90
2022-12-28T12:33:30.246Z,2.10
2022-12-28T12:36:09.496Z,1.95
2022-12-28T12:38:53.591Z,2.00
2022-12-28T12:41:28.556Z,2.00
2022-12-28T12:44:12.343Z,1.70
2022-12-28T12:49:51.949Z,1.80
2022-12-28T12:52:33.840Z,1.40
2022-12-28T12:55:19.003Z,1.65
2022-12-28T13:00:19.760Z,1.42
2022-12-28T13:03:15.026Z,1.90
2022-12-28T13:05:52.043Z,1.98
2022-12-28T13:08:24.946Z,1.73
2022-12-28T13:10:52.756Z,1.42
2022-12-28T13:13:28.527Z,1.70
2022-12-28T13:16:01.064Z,1.80
2022-12-28T13:18:44.476Z,1.50
2022-12-28T13:21:19.614Z,1.50
2022-12-28T13:23:48.243Z,1.48
2022-12-28T13:26:16.213Z,1.77
2022-12-28T13:28:50.255Z,1.50
2022-12-28T13:31:19.233Z,1.58
2022-12-28T13:33:54.703Z,1.67
2022-12-28T13:36:21.409Z,1.55
2022-12-28T13:39:00.284Z,1.52
2022-12-28T13:41:27.472Z,1.55
2022-12-28T13:44:22.874Z,1.50
2022-12-28T13:46:55.834Z,1.40
2022-12-28T13:49:23.887Z,1.67
2022-12-28T13:51:53.575Z,1.70
2022-12-28T13:54:23.487Z,1.65
2022-12-28T13:56:51.141Z,1.88
2022-12-28T13:59:19.682Z,1.77
2022-12-28T14:01:49.337Z,1.50
2022-12-28T14:04:51.802Z,1.55
2022-12-28T14:07:11.750Z,1.63
2022-12-28T14:09:40.365Z,1.50
2022-12-28T14:12:07.676Z,1.52
2022-12-28T14:14:34.884Z,1.52
2022-12-28T14:17:02.793Z,1.30
2022-12-28T14:19:29.594Z,1.48
2022-12-28T14:21:56.224Z,1.50
2022-12-28T14:24:23.243Z,1.50
2022-12-28T14:26:54.768Z,1.40
2022-12-28T14:29:26.880Z,1.20
2022-12-28T14:31:57.091Z,1.38
2022-12-28T14:34:27.608Z,1.45
2022-12-28T14:36:56.389Z,1.83
2022-12-28T14:39:28.976Z,1.30
2022-12-28T14:41:58.859Z,1.13
2022-12-28T14:44:29.728Z,1.50
2022-12-28T14:46:56.577Z,1.95
2022-12-28T14:49:36.827Z,2.05
2022-12-28T14:52:37.511Z,1.50
2022-12-28T14:55:20.252Z,1.38
2022-12-28T14:57:50.791Z,1.60
2022-12-28T15:00:26.821Z,1.83
2022-12-28T15:02:54.934Z,1.50
2022-12-28T15:05:36.308Z,1.52
2022-12-28T15:08:03.225Z,1.75
2022-12-28T15:10:31.665Z,1.75
2022-12-28T15:12:59.709Z,1.92
2022-12-28T15:15:26.435Z,1.70
2022-12-28T15:17:53.216Z,2.08
2022-12-28T15:20:19.915Z,1.90
2022-12-28T15:22:48.028Z,1.42
2022-12-28T15:25:14.821Z,2.00
2022-12-28T15:27:41.460Z,2.30
2022-12-28T15:30:14.396Z,1.58
2022-12-28T15:32:45.364Z,2.00
2022-12-28T15:35:12.304Z,2.10
2022-12-28T15:37:39.222Z,1.90
2022-12-28T15:40:07.508Z,1.77
2022-12-28T15:42:40.084Z,2.08
2022-12-28T15:45:09.902Z,1.73
2022-12-28T15:47:36.578Z,1.90
2022-12-28T15:50:03.955Z,2.55
2022-12-28T15:52:31.051Z,1.77
2022-12-28T15:54:57.879Z,1.52
2022-12-28T15:57:24.532Z,2.00
2022-12-28T15:59:51.190Z,2.10
2022-12-28T16:02:19.563Z,1.70
2022-12-28T16:04:46.515Z,1.90
2022-12-28T16:07:13.174Z,2.47
2022-12-28T16:09:39.772Z,2.10
2022-12-28T16:12:07.290Z,1.65
2022-12-28T16:14:33.924Z,2.00
2022-12-28T16:17:00.622Z,2.00
2022-12-28T16:19:28.955Z,2.10
2022-12-28T16:21:55.638Z,1.98
2022-12-28T16:24:22.393Z,2.10
2022-12-28T16:26:49.001Z,1.98
2022-12-28T16:29:15.649Z,2.03
2022-12-28T16:31:42.506Z,1.77
2022-12-28T16:34:11.815Z,1.67
2022-12-28T16:36:40.251Z,1.58
2022-12-28T16:39:08.828Z,2.00
2022-12-28T16:41:37.031Z,1.63
2022-12-28T16:44:06.581Z,1.55
2022-12-28T16:46:33.519Z,1.77
2022-12-28T16:49:00.532Z,1.77
2022-12-28T16:51:27.178Z,1.45
2022-12-28T16:53:55.232Z,2.60
2022-12-28T16:56:22.140Z,1.65
2022-12-28T16:58:49.431Z,1.23
2022-12-28T17:01:16.455Z,1.85
2022-12-28T17:03:43.501Z,1.80
2022-12-28T17:06:10.515Z,1.70
2022-12-28T17:08:37.190Z,1.67
2022-12-28T17:11:09.466Z,1.73
2022-12-28T17:13:36.443Z,1.70
2022-12-28T17:16:03.373Z,2.65
2022-12-28T17:18:30.154Z,1.73
2022-12-28T17:21:00.662Z,2.03
2022-12-28T17:23:31.475Z,2.20
2022-12-28T17:25:58.093Z,1.88
2022-12-28T17:28:26.194Z,1.80
2022-12-28T17:31:03.572Z,1.90
2022-12-28T17:33:35.509Z,1.88
2022-12-28T17:36:06.154Z,1.85
2022-12-28T17:38:32.778Z,1.90
2022-12-28T17:40:59.427Z,1.90
2022-12-28T17:43:27.508Z,1.88
2022-12-28T17:45:54.227Z,1.88
2022-12-28T17:48:20.935Z,2.30
2022-12-28T17:50:47.508Z,1.85
2022-12-28T17:53:14.176Z,2.17
2022-12-28T17:55:40.814Z,1.60
2022-12-28T17:58:07.468Z,1.92
2022-12-28T18:00:36.134Z,2.00
2022-12-28T18:03:02.950Z,1.63
2022-12-28T18:05:30.688Z,1.60
2022-12-28T18:07:57.487Z,1.70
2022-12-28T18:10:24.142Z,1.63
2022-12-28T18:12:50.838Z,1.60
2022-12-28T18:15:17.642Z,1.70
2022-12-28T18:17:45.681Z,1.58
2022-12-28T18:20:12.283Z,1.73
2022-12-28T18:22:38.908Z,1.55
2022-12-28T18:25:05.858Z,1.50
2022-12-28T18:27:35.010Z,1.70
2022-12-28T18:30:01.655Z,1.70
2022-12-28T18:32:28.243Z,1.80
2022-12-28T18:34:56.204Z,1.73
2022-12-28T18:37:22.833Z,1.67
2022-12-28T18:39:49.476Z,1.40
2022-12-28T18:42:16.101Z,1.60
2022-12-28T18:44:42.750Z,1.88
2022-12-28T18:47:09.345Z,2.50
2022-12-28T18:49:35.967Z,1.75
2022-12-28T18:52:04.232Z,1.95
2022-12-28T18:54:32.382Z,1.60
2022-12-28T18:56:59.002Z,1.55
2022-12-28T18:59:25.619Z,1.90
2022-12-28T19:02:09.943Z,1.73
2022-12-28T19:04:38.941Z,2.30
2022-12-28T19:07:06.984Z,1.70
2022-12-28T19:09:33.635Z,1.65
2022-12-28T19:12:00.256Z,1.88
2022-12-28T19:14:26.900Z,2.25
2022-12-28T19:16:53.684Z,1.85
2022-12-28T19:19:20.486Z,1.88
2022-12-28T19:21:47.127Z,2.10
2022-12-28T19:24:16.939Z,1.73
2022-12-28T19:26:44.497Z,1.85
2022-12-28T19:29:12.061Z,1.90
2022-12-28T19:31:39.015Z,2.05
2022-12-28T19:34:05.668Z,1.80
2022-12-28T19:36:32.626Z,1.83
2022-12-28T19:38:59.475Z,1.90
2022-12-28T19:41:27.542Z,1.98
2022-12-28T19:43:54.231Z,1.92
2022-12-28T19:46:22.811Z,2.45
2022-12-28T19:48:52.730Z,3.08
2022-12-28T19:51:19.406Z,3.03
2022-12-28T19:53:46.013Z,8.65
2022-12-28T19:56:14.774Z,2.65
2022-12-28T19:58:44.246Z,2.22
2022-12-28T20:01:13.151Z,2.47
2022-12-28T20:03:40.664Z,2.20
2022-12-28T20:06:08.713Z,2.15
2022-12-28T20:08:35.879Z,2.40
2022-12-28T20:11:03.456Z,2.40
2022-12-28T20:13:30.326Z,1.80
2022-12-28T20:15:58.745Z,2.33
2022-12-28T20:18:25.573Z,1.85
2022-12-28T20:21:18.735Z,1.92
2022-12-28T20:23:39.019Z,2.30
2022-12-28T20:26:06.083Z,1.98
2022-12-28T20:28:33.013Z,1.77
2022-12-28T20:31:02.113Z,2.15
2022-12-28T20:33:30.905Z,1.98
2022-12-28T20:35:58.608Z,2.05
2022-12-28T20:38:25.776Z,1.92
2022-12-28T20:41:02.134Z,1.80
2022-12-28T20:43:29.023Z,4.60
2022-12-28T20:45:55.613Z,2.88
2022-12-28T20:48:23.669Z,2.25
2022-12-28T20:50:55.741Z,1.90
2022-12-28T20:53:22.489Z,1.80
2022-12-28T20:55:49.120Z,2.05
2022-12-28T20:58:15.738Z,2.00
2022-12-28T21:00:42.433Z,1.92
2022-12-28T21:03:09.080Z,1.63
2022-12-28T21:05:37.069Z,1.63
2022-12-28T21:08:03.938Z,1.88
2022-12-28T21:10:30.542Z,1.50
2022-12-28T21:12:57.148Z,1.80
2022-12-28T21:15:23.810Z,1.55
2022-12-28T21:17:50.414Z,1.88
2022-12-28T21:20:17.066Z,1.40
2022-12-28T21:22:45.135Z,1.50
2022-12-28T21:25:11.720Z,2.38
2022-12-28T21:27:38.279Z,1.50
2022-12-28T21:30:06.237Z,2.15
2022-12-28T21:32:32.830Z,1.27
2022-12-28T21:34:59.438Z,1.60
2022-12-28T21:37:26.064Z,1.67
2022-12-28T21:39:54.208Z,1.17
2022-12-28T21:42:20.809Z,1.70
2022-12-28T21:44:47.485Z,1.45
2022-12-28T21:47:14.177Z,2.00
2022-12-28T21:49:42.497Z,1.70
2022-12-28T21:52:09.050Z,1.58
2022-12-28T21:54:35.910Z,1.38
2022-12-28T21:57:05.425Z,1.70
2022-12-28T21:59:32.518Z,1.35
2022-12-28T22:01:59.320Z,1.65
2022-12-28T22:04:26.825Z,1.60
2022-12-28T22:06:53.777Z,1.52
2022-12-28T22:09:20.413Z,1.65
2022-12-28T22:11:47.068Z,1.50
2022-12-28T22:14:15.081Z,1.48
2022-12-28T22:16:41.707Z,1.25
2022-12-28T22:19:08.610Z,1.52
2022-12-28T22:21:35.646Z,1.60
2022-12-28T22:24:02.184Z,1.58
2022-12-28T22:26:28.827Z,1.27
2022-12-28T22:28:55.455Z,1.73
2022-12-28T22:31:23.471Z,1.33
2022-12-28T22:33:50.600Z,1.45
2022-12-28T22:36:19.498Z,1.83
2022-12-28T22:38:46.886Z,1.50
2022-12-28T22:41:13.759Z,1.17
2022-12-28T22:43:40.476Z,1.63
2022-12-28T22:46:09.714Z,1.38
2022-12-28T22:48:38.031Z,1.60
2022-12-28T22:51:06.419Z,1.40
2022-12-28T22:53:33.581Z,1.25
2022-12-28T22:56:02.371Z,1.50
2022-12-28T22:58:29.136Z,1.40
2022-12-28T23:01:03.693Z,1.92
2022-12-28T23:03:30.442Z,1.75
2022-12-28T23:05:58.472Z,1.80
2022-12-28T23:08:25.156Z,1.33
2022-12-28T23:10:53.081Z,1.63
2022-12-28T23:13:19.742Z,1.90
2022-12-28T23:15:55.312Z,1.70
2022-12-28T23:18:22.191Z,1.90
2022-12-28T23:20:48.783Z,1.50
2022-12-28T23:23:16.758Z,1.38
2022-12-28T23:25:43.307Z,1.67
2022-12-28T23:28:12.093Z,1.60
2022-12-28T23:30:41.681Z,1.13
2022-12-28T23:33:08.341Z,1.45
2022-12-28T23:35:34.949Z,1.50
2022-12-28T23:38:01.579Z,1.98
2022-12-28T23:40:29.684Z,1.35
2022-12-28T23:42:56.300Z,1.27
2022-12-28T23:45:22.953Z,1.48
2022-12-28T23:47:52.976Z,1.48
2022-12-28T23:50:19.962Z,1.30
2022-12-28T23:52:46.594Z,1.40
2022-12-28T23:55:13.528Z,1.40
2022-12-28T23:57:41.927Z,1.45
